Hauptseite
METAR-TAF:

METAR-TAF

Flughäfen :

Flughafen Sanikiluaq

Sanikiluaq, Nunavut, Kanada

Breite: 56-32N, Länge: 079-15W, Höhe: 32 m

Beobachtung

Neuester Wetterbericht von vor 1 Stunde und 19 Minuten, um 18:00 UTC
Wind 13 kt aus Süd/Südwest
Temperatur 10°C
Luftfeuchtigkeit 93%
Luftdruck 1000 hPa
Sichtweite: 19.3 km
Aufgelockert bewölkt in der Höhe von 1200 ft
Geschlossene Wolkendecke in der Höhe von 5000 ft
Leichtregen

METAR: CYSK 191800Z 20013KT 12SM -RA SCT012 OVC050 10/09 A2953 RMK SC3ST5 LAST OBS/NEXT 201200UTC PRESRR SLP001

Zeit: 15:19 (19:19 UTC)


TAF: fehlend

Wetterbeobachtungen und Prognosen von mehr als 4000 Flughäfen (METAR und TAF Bericht).

Die verfügbaren Stationen werden durch gelbe und rote Markierungen auf der Karte dargestellt.

Führen Sie die Maus auf sie, um den Namen der Station zu sehen.

Darauf klicken, um die Beobachtung von Wetterbeobachtungen und Prognosen zu sehen.

Um die Karte zu ändern : klicken Sie auf den grünen Tasten mit einem schwarzen Kreuz Zum Vergrößern, auf den grünen Button mit einem Gedankenstrich zu verkleinern, oder auf die grünen Pfeile für benachbarte Karten.


METAR-TAF: